createdAt,value
2017-07-12T00:00:50.320Z,94.99
2017-07-12T00:01:50.408Z,94.88
2017-07-12T00:02:50.405Z,94.88
2017-07-12T00:03:50.406Z,94.83
2017-07-12T00:04:50.406Z,95.01
2017-07-12T00:05:50.422Z,94.88
2017-07-12T00:06:50.326Z,94.59
2017-07-12T00:07:50.419Z,94.64
2017-07-12T00:08:50.405Z,94.59
2017-07-12T00:09:50.407Z,94.59
2017-07-12T00:10:50.381Z,94.72
2017-07-12T00:11:50.421Z,94.67
2017-07-12T00:12:50.405Z,94.69
2017-07-12T00:13:50.327Z,94.99
2017-07-12T00:14:50.373Z,95.07
2017-07-12T00:15:50.415Z,94.83
2017-07-12T00:16:50.329Z,95.04
2017-07-12T00:17:50.417Z,95.37
2017-07-12T00:18:50.415Z,95.58
2017-07-12T00:19:50.419Z,95.50
2017-07-12T00:20:50.415Z,95.58
2017-07-12T00:21:50.409Z,95.53
2017-07-12T00:22:50.395Z,95.61
2017-07-12T00:23:50.327Z,95.85
2017-07-12T00:24:50.417Z,96.20
2017-07-12T00:25:50.419Z,96.26
2017-07-12T00:26:50.336Z,96.45
2017-07-12T00:27:50.409Z,96.64
2017-07-12T00:28:50.443Z,96.85
2017-07-12T00:29:50.421Z,97.04
2017-07-12T00:30:50.422Z,97.28
2017-07-12T00:31:50.341Z,97.26
2017-07-12T00:32:50.425Z,97.21
2017-07-12T00:33:50.351Z,97.47
2017-07-12T00:34:50.419Z,97.55
2017-07-12T00:35:50.424Z,97.66
2017-07-12T00:36:50.341Z,98.02
2017-07-12T00:37:50.425Z,98.12
2017-07-12T00:38:50.345Z,98.31
2017-07-12T00:39:50.420Z,98.40
2017-07-12T00:40:51.432Z,98.64
2017-07-12T00:41:50.342Z,98.53
2017-07-12T00:42:50.495Z,98.66
2017-07-12T00:43:50.350Z,98.85
2017-07-12T00:44:50.418Z,98.99
2017-07-12T00:45:50.398Z,99.13
2017-07-12T00:46:50.418Z,99.26
2017-07-12T00:47:50.400Z,99.13
2017-07-12T00:48:50.406Z,98.94
2017-07-12T00:49:50.406Z,98.88
2017-07-12T00:50:50.509Z,98.69
2017-07-12T00:51:50.507Z,98.66
2017-07-12T00:52:50.412Z,98.72
2017-07-12T00:53:50.408Z,98.42
2017-07-12T00:54:50.408Z,98.34
2017-07-12T00:55:50.412Z,98.15
2017-07-12T00:56:50.511Z,98.21
2017-07-12T00:57:50.413Z,97.83
2017-07-12T00:58:50.410Z,97.93
2017-07-12T00:59:50.410Z,97.72
2017-07-12T01:00:50.409Z,97.69
2017-07-12T01:01:50.410Z,97.77
2017-07-12T01:02:50.409Z,97.47
2017-07-12T01:03:50.413Z,97.15
2017-07-12T01:04:50.416Z,96.96
2017-07-12T01:05:50.414Z,97.07
2017-07-12T01:06:50.414Z,97.15
2017-07-12T01:07:50.413Z,96.91
2017-07-12T01:08:50.437Z,97.15
2017-07-12T01:09:50.417Z,97.18
2017-07-12T01:10:50.417Z,97.31
2017-07-12T01:11:50.418Z,97.34
2017-07-12T01:12:50.421Z,97.58
2017-07-12T01:13:50.417Z,97.58
2017-07-12T01:14:50.418Z,97.66
2017-07-12T01:15:50.422Z,97.47
2017-07-12T01:16:50.521Z,97.31
2017-07-12T01:17:50.421Z,97.45
2017-07-12T01:18:50.425Z,97.61
2017-07-12T01:19:50.422Z,97.42
2017-07-12T01:20:50.422Z,97.36
2017-07-12T01:21:50.427Z,97.45
2017-07-12T01:22:50.423Z,97.55
2017-07-12T01:23:50.426Z,97.39
2017-07-12T01:24:50.422Z,97.34
2017-07-12T01:25:50.428Z,97.12
2017-07-12T01:26:50.427Z,96.99
2017-07-12T01:27:50.428Z,97.10
2017-07-12T01:28:50.461Z,96.88
2017-07-12T01:29:50.451Z,96.80
2017-07-12T01:30:50.447Z,96.88
2017-07-12T01:31:50.374Z,96.85
2017-07-12T01:32:50.460Z,96.93
2017-07-12T01:33:50.456Z,96.91
2017-07-12T01:34:50.486Z,96.96
2017-07-12T01:35:50.379Z,96.72
2017-07-12T01:36:50.459Z,96.74
2017-07-12T01:37:50.459Z,96.96
2017-07-12T01:38:50.379Z,97.21
2017-07-12T01:39:50.471Z,97.04
2017-07-12T01:40:50.445Z,97.28
2017-07-12T01:41:50.451Z,97.36
2017-07-12T01:42:50.462Z,97.45
2017-07-12T01:43:50.467Z,97.50
2017-07-12T01:44:50.474Z,97.64
2017-07-12T01:45:50.379Z,97.85
2017-07-12T01:46:50.387Z,97.91
2017-07-12T01:47:50.429Z,98.02
2017-07-12T01:48:50.376Z,98.26
2017-07-12T01:49:50.418Z,98.40
2017-07-12T01:50:50.378Z,98.42
2017-07-12T01:51:50.377Z,98.42
2017-07-12T01:52:50.365Z,98.50
2017-07-12T01:53:50.376Z,98.55
2017-07-12T01:54:50.474Z,98.59
2017-07-12T01:55:50.380Z,98.53
2017-07-12T01:56:50.384Z,98.34
2017-07-12T01:57:50.412Z,98.40
2017-07-12T01:58:50.456Z,98.42
2017-07-12T01:59:50.475Z,98.48
2017-07-12T02:00:50.389Z,98.53
2017-07-12T02:01:50.480Z,98.64
2017-07-12T02:02:50.403Z,98.40
2017-07-12T02:03:50.440Z,98.34
2017-07-12T02:04:50.476Z,98.29
2017-07-12T02:05:50.439Z,98.37
2017-07-12T02:06:50.389Z,98.31
2017-07-12T02:07:50.390Z,98.34
2017-07-12T02:08:50.475Z,98.26
2017-07-12T02:09:50.439Z,98.18
2017-07-12T02:10:50.486Z,98.04
2017-07-12T02:11:50.480Z,97.85
2017-07-12T02:12:50.401Z,98.10
2017-07-12T02:13:50.389Z,98.02
2017-07-12T02:14:50.403Z,97.91
2017-07-12T02:15:50.469Z,97.96
2017-07-12T02:16:50.475Z,97.96
2017-07-12T02:17:50.444Z,97.96
2017-07-12T02:18:50.468Z,97.91
2017-07-12T02:19:50.470Z,97.88
2017-07-12T02:20:50.512Z,97.83
2017-07-12T02:22:50.469Z,97.85
2017-07-12T02:24:50.473Z,97.88
2017-07-12T02:25:50.470Z,97.91
2017-07-12T02:26:50.444Z,98.02
2017-07-12T02:27:50.471Z,97.99
2017-07-12T02:28:50.467Z,98.02
2017-07-12T02:29:50.458Z,98.12
2017-07-12T02:30:50.459Z,97.99
2017-07-12T02:31:50.461Z,98.02
2017-07-12T02:32:50.462Z,97.93
2017-07-12T02:33:50.466Z,97.96
2017-07-12T02:34:50.462Z,98.04
2017-07-12T02:35:50.460Z,98.04
2017-07-12T02:36:50.465Z,97.99
2017-07-12T02:37:50.465Z,97.99
2017-07-12T02:38:50.408Z,98.12
2017-07-12T02:39:50.413Z,98.18
2017-07-12T02:40:50.497Z,98.18
2017-07-12T02:41:50.414Z,98.26
2017-07-12T02:42:50.462Z,98.21
2017-07-12T02:43:50.497Z,98.31
2017-07-12T02:44:50.492Z,98.29
2017-07-12T02:45:50.501Z,98.26
2017-07-12T02:46:50.463Z,98.12
2017-07-12T02:47:50.484Z,97.85
2017-07-12T02:48:50.420Z,97.99
2017-07-12T02:49:50.500Z,97.88
2017-07-12T02:50:50.416Z,97.74
2017-07-12T02:51:50.497Z,97.80
2017-07-12T02:52:50.482Z,97.74
2017-07-12T02:53:50.513Z,97.72
2017-07-12T02:54:50.509Z,97.61
2017-07-12T02:55:50.515Z,97.74
2017-07-12T02:56:50.492Z,97.66
2017-07-12T02:57:50.417Z,97.74
2017-07-12T02:58:50.426Z,97.74
2017-07-12T02:59:50.509Z,97.66
2017-07-12T03:00:50.477Z,97.66
2017-07-12T03:01:50.480Z,97.74
2017-07-12T03:02:50.479Z,97.66
2017-07-12T03:03:50.481Z,97.80
2017-07-12T03:04:50.482Z,97.74
2017-07-12T03:05:50.478Z,97.85
2017-07-12T03:06:50.482Z,97.85
2017-07-12T03:07:50.485Z,97.91
2017-07-12T03:08:50.497Z,97.91
2017-07-12T03:09:50.512Z,97.96
2017-07-12T03:10:50.493Z,97.85
2017-07-12T03:11:50.501Z,97.69
2017-07-12T03:12:50.493Z,97.74
2017-07-12T03:13:50.496Z,97.74
2017-07-12T03:14:50.497Z,97.64
2017-07-12T03:15:50.505Z,97.64
2017-07-12T03:16:50.500Z,97.66
2017-07-12T03:17:50.500Z,97.74
2017-07-12T03:18:50.519Z,97.74
2017-07-12T03:19:50.521Z,97.80
2017-07-12T03:20:50.439Z,97.74
2017-07-12T03:21:50.519Z,97.85
2017-07-12T03:22:50.528Z,97.77
2017-07-12T03:23:50.440Z,97.85
2017-07-12T03:24:50.430Z,97.74
2017-07-12T03:26:50.522Z,97.61
2017-07-12T03:27:50.436Z,97.39
2017-07-12T03:28:50.508Z,97.36
2017-07-12T03:29:50.587Z,97.26
2017-07-12T03:30:50.505Z,97.15
2017-07-12T03:31:50.431Z,97.28
2017-07-12T03:32:50.510Z,97.36
2017-07-12T03:33:50.515Z,97.34
2017-07-12T03:34:50.508Z,97.28
2017-07-12T03:35:50.505Z,97.26
2017-07-12T03:36:50.506Z,97.23
2017-07-12T03:37:50.510Z,97.18
2017-07-12T03:38:50.511Z,97.18
2017-07-12T03:39:50.501Z,97.04
2017-07-12T03:40:50.501Z,97.15
2017-07-12T03:41:50.506Z,96.91
2017-07-12T03:42:50.502Z,96.91
2017-07-12T03:43:50.501Z,96.99
2017-07-12T03:44:50.503Z,96.55
2017-07-12T03:46:50.506Z,96.61
2017-07-12T03:48:50.523Z,96.42
2017-07-12T03:49:50.457Z,96.36
2017-07-12T03:50:50.532Z,96.26
2017-07-12T03:51:50.530Z,96.07
2017-07-12T03:52:50.539Z,96.17
2017-07-12T03:53:50.503Z,96.39
2017-07-12T03:54:50.458Z,96.39
2017-07-12T03:55:50.500Z,96.39
2017-07-12T03:56:50.537Z,95.98
2017-07-12T03:57:50.504Z,96.02
2017-07-12T03:58:50.452Z,96.13
2017-07-12T03:59:50.511Z,96.15
2017-07-12T04:00:50.540Z,96.04
2017-07-12T04:01:50.523Z,96.20
2017-07-12T04:02:50.525Z,96.34
2017-07-12T04:03:50.531Z,96.04
2017-07-12T04:04:50.527Z,96.17
2017-07-12T04:05:50.504Z,96.23
2017-07-12T04:06:50.579Z,96.15
2017-07-12T04:07:50.534Z,96.34
2017-07-12T04:08:50.517Z,96.42
2017-07-12T04:09:50.520Z,96.23
2017-07-12T04:10:50.522Z,96.47
2017-07-12T04:11:50.524Z,96.23
2017-07-12T04:12:50.520Z,96.26
2017-07-12T04:13:50.525Z,96.04
2017-07-12T04:14:50.522Z,96.26
2017-07-12T04:15:50.522Z,95.85
2017-07-12T04:16:50.526Z,96.04
2017-07-12T04:17:50.524Z,96.02
2017-07-12T04:18:50.471Z,95.61
2017-07-12T04:19:50.513Z,95.47
2017-07-12T04:20:50.459Z,95.31
2017-07-12T04:21:50.537Z,95.42
2017-07-12T04:22:50.556Z,95.61
2017-07-12T04:23:50.530Z,95.56
2017-07-12T04:24:50.559Z,95.88
2017-07-12T04:25:50.521Z,95.80
2017-07-12T04:26:50.542Z,95.83
2017-07-12T04:27:50.478Z,95.64
2017-07-12T04:28:50.472Z,95.83
2017-07-12T04:29:50.475Z,95.72
2017-07-12T04:30:50.477Z,95.45
2017-07-12T04:31:50.569Z,95.61
2017-07-12T04:32:50.543Z,95.83
2017-07-12T04:33:50.560Z,95.96
2017-07-12T04:34:50.546Z,96.20
2017-07-12T04:35:50.573Z,96.34
2017-07-12T04:36:50.568Z,96.80
2017-07-12T04:37:50.543Z,97.26
2017-07-12T04:38:50.549Z,97.61
2017-07-12T04:39:50.552Z,97.88
2017-07-12T04:40:50.548Z,97.74
2017-07-12T04:41:50.490Z,98.29
2017-07-12T04:42:50.549Z,98.69
2017-07-12T04:43:50.548Z,98.77
2017-07-12T04:44:50.549Z,99.18
2017-07-12T04:45:50.549Z,99.29
2017-07-12T04:46:50.550Z,99.43
2017-07-12T04:47:50.548Z,99.72
2017-07-12T04:48:50.490Z,99.99
2017-07-12T04:49:50.567Z,99.99
2017-07-12T04:50:50.571Z,99.99
2017-07-12T04:51:50.572Z,99.99
2017-07-12T04:52:50.570Z,99.99
2017-07-12T04:53:50.547Z,99.99
2017-07-12T04:54:50.502Z,99.99
2017-07-12T04:55:50.574Z,99.99
2017-07-12T04:56:50.598Z,99.99
2017-07-12T04:57:51.718Z,99.99
2017-07-12T04:58:50.574Z,99.99
2017-07-12T04:59:50.553Z,99.99
2017-07-12T05:00:50.586Z,99.99
2017-07-12T05:01:50.499Z,99.99
2017-07-12T05:02:50.486Z,99.99
2017-07-12T05:03:50.578Z,99.99
2017-07-12T05:04:50.499Z,99.99
2017-07-12T05:05:50.585Z,99.99
2017-07-12T05:06:50.556Z,99.99
2017-07-12T05:07:50.584Z,99.99
2017-07-12T05:08:50.561Z,99.99
2017-07-12T05:09:50.561Z,99.99
2017-07-12T05:10:50.564Z,99.99
2017-07-12T05:11:50.584Z,99.99
2017-07-12T05:12:50.565Z,99.99
2017-07-12T05:13:50.562Z,99.99
2017-07-12T05:14:50.572Z,99.99
2017-07-12T05:15:50.567Z,99.99
2017-07-12T05:16:50.560Z,99.99
2017-07-12T05:17:50.566Z,99.99
2017-07-12T05:18:50.566Z,99.99
2017-07-12T05:19:50.589Z,99.99
2017-07-12T05:20:50.566Z,99.99
2017-07-12T05:21:50.507Z,99.99
2017-07-12T05:22:50.592Z,99.99
2017-07-12T05:23:50.594Z,99.99
2017-07-12T05:24:50.576Z,99.99
2017-07-12T05:25:50.601Z,99.99
2017-07-12T05:26:50.568Z,99.99
2017-07-12T05:27:50.584Z,99.99
2017-07-12T05:28:50.594Z,99.99
2017-07-12T05:29:50.572Z,99.99
2017-07-12T05:30:50.573Z,99.99
2017-07-12T05:31:50.575Z,99.99
2017-07-12T05:32:50.572Z,99.99
2017-07-12T05:33:50.578Z,99.99
2017-07-12T05:34:50.572Z,99.99
2017-07-12T05:35:50.577Z,99.99
2017-07-12T05:36:50.575Z,99.99
2017-07-12T05:37:50.578Z,99.99
2017-07-12T05:38:50.581Z,99.99
2017-07-12T05:39:50.516Z,99.99
2017-07-12T05:40:50.607Z,99.99
2017-07-12T05:41:50.519Z,99.99
2017-07-12T05:42:50.595Z,99.99
2017-07-12T05:43:50.559Z,99.99
2017-07-12T05:44:50.609Z,99.99
2017-07-12T05:45:50.601Z,99.99
2017-07-12T05:46:50.603Z,99.99
2017-07-12T05:47:50.527Z,99.99
2017-07-12T05:48:50.607Z,99.99
2017-07-12T05:49:50.583Z,99.99
2017-07-12T05:50:50.586Z,99.99
2017-07-12T05:51:50.590Z,99.99
2017-07-12T05:52:50.589Z,99.99
2017-07-12T05:53:50.587Z,99.99
2017-07-12T05:54:50.590Z,99.99
2017-07-12T05:55:50.596Z,99.99
2017-07-12T05:56:50.590Z,99.99
2017-07-12T05:57:50.589Z,99.99
2017-07-12T05:58:50.513Z,99.99
2017-07-12T05:59:50.613Z,99.99
2017-07-12T06:00:50.523Z,99.99
2017-07-12T06:01:50.717Z,99.99
2017-07-12T06:02:50.611Z,99.99
2017-07-12T06:03:50.569Z,99.99
2017-07-12T06:04:50.614Z,99.99
2017-07-12T06:05:50.525Z,99.99
2017-07-12T06:06:50.521Z,99.99
2017-07-12T06:07:50.614Z,99.99
2017-07-12T06:08:50.617Z,99.99
2017-07-12T06:09:50.614Z,99.99
2017-07-12T06:10:50.596Z,99.99
2017-07-12T06:11:50.603Z,99.99
2017-07-12T06:12:50.601Z,99.99
2017-07-12T06:13:50.602Z,99.99
2017-07-12T06:14:50.603Z,99.99
2017-07-12T06:15:50.599Z,99.99
2017-07-12T06:16:50.603Z,99.99
2017-07-12T06:17:50.601Z,99.99
2017-07-12T06:18:50.628Z,99.99
2017-07-12T06:19:50.537Z,99.99
2017-07-12T06:20:50.571Z,99.99
2017-07-12T06:21:50.575Z,99.99
2017-07-12T06:22:50.533Z,99.99
2017-07-12T06:23:50.577Z,99.99
2017-07-12T06:24:50.526Z,99.99
2017-07-12T06:25:50.572Z,99.99
2017-07-12T06:26:50.566Z,99.99
2017-07-12T06:27:50.533Z,99.99
2017-07-12T06:28:50.502Z,99.99
2017-07-12T06:29:50.553Z,99.99
2017-07-12T06:30:50.625Z,99.99
2017-07-12T06:31:50.606Z,99.99
2017-07-12T06:32:50.605Z,99.99
2017-07-12T06:33:50.604Z,99.99
2017-07-12T06:34:50.545Z,99.99
2017-07-12T06:35:50.630Z,99.99
2017-07-12T06:36:50.686Z,99.99
2017-07-12T06:37:50.550Z,99.99
2017-07-12T06:38:50.631Z,99.99
2017-07-12T06:39:50.600Z,99.99
2017-07-12T06:40:50.602Z,99.99
2017-07-12T06:41:50.599Z,99.99
2017-07-12T06:42:50.601Z,99.99
2017-07-12T06:43:50.707Z,99.99
2017-07-12T06:44:50.607Z,99.99
2017-07-12T06:45:50.605Z,99.99
2017-07-12T06:46:50.606Z,99.99
2017-07-12T06:47:50.605Z,99.99
2017-07-12T06:48:50.604Z,99.99
2017-07-12T06:49:50.648Z,99.99
2017-07-12T06:50:50.554Z,99.99
2017-07-12T06:51:50.638Z,99.99
2017-07-12T06:52:50.736Z,99.99
2017-07-12T06:53:50.551Z,99.99
2017-07-12T06:54:50.638Z,99.99
2017-07-12T06:55:50.606Z,99.99
2017-07-12T06:56:50.642Z,99.99
2017-07-12T06:57:50.564Z,99.99
2017-07-12T06:58:50.602Z,99.99
2017-07-12T06:59:50.627Z,99.99
2017-07-12T07:00:50.628Z,99.99
2017-07-12T07:01:50.626Z,99.99
2017-07-12T07:02:50.626Z,99.99
2017-07-12T07:03:50.629Z,99.99
2017-07-12T07:04:50.622Z,99.99
2017-07-12T07:05:50.626Z,99.99
2017-07-12T07:06:50.627Z,99.99
2017-07-12T07:07:50.627Z,99.99
2017-07-12T07:08:50.630Z,99.99
2017-07-12T07:09:50.655Z,99.99
2017-07-12T07:10:50.557Z,99.99
2017-07-12T07:11:50.634Z,99.99
2017-07-12T07:12:50.561Z,99.99
2017-07-12T07:13:50.615Z,99.99
2017-07-12T07:14:50.649Z,99.99
2017-07-12T07:15:50.611Z,99.99
2017-07-12T07:16:50.649Z,99.99
2017-07-12T07:17:50.659Z,99.99
2017-07-12T07:18:50.564Z,99.99
2017-07-12T07:19:50.638Z,99.99
2017-07-12T07:20:50.639Z,99.99
2017-07-12T07:21:50.654Z,99.99
2017-07-12T07:22:50.638Z,99.99
2017-07-12T07:23:50.638Z,99.99
2017-07-12T07:24:50.638Z,99.99
2017-07-12T07:25:50.641Z,99.99
2017-07-12T07:26:50.643Z,99.99
2017-07-12T07:27:50.639Z,99.99
2017-07-12T07:28:50.640Z,99.99
2017-07-12T07:29:50.663Z,99.99
2017-07-12T07:30:50.628Z,99.99
2017-07-12T07:31:50.599Z,99.99
2017-07-12T07:32:50.586Z,99.99
2017-07-12T07:33:50.585Z,99.99
2017-07-12T07:34:50.664Z,99.99
2017-07-12T07:35:50.628Z,99.99
2017-07-12T07:36:50.650Z,99.99
2017-07-12T07:37:50.666Z,99.99
2017-07-12T07:38:50.672Z,99.99
2017-07-12T07:39:50.649Z,99.99
2017-07-12T07:40:50.653Z,99.99
2017-07-12T07:41:50.649Z,99.99
2017-07-12T07:42:50.652Z,99.99
2017-07-12T07:43:50.650Z,99.99
2017-07-12T07:44:50.737Z,99.99
2017-07-12T07:45:50.649Z,99.99
2017-07-12T07:46:50.650Z,99.99
2017-07-12T07:47:50.656Z,99.99
2017-07-12T07:48:50.648Z,99.99
2017-07-12T07:49:50.675Z,99.99
2017-07-12T07:50:50.675Z,99.99
2017-07-12T07:51:50.654Z,99.99
2017-07-12T07:52:50.592Z,99.99
2017-07-12T07:53:50.676Z,99.99
2017-07-12T07:54:50.681Z,99.99
2017-07-12T07:55:50.651Z,99.99
2017-07-12T07:56:50.678Z,99.99
2017-07-12T07:57:50.652Z,99.99
2017-07-12T07:58:50.673Z,99.99
2017-07-12T07:59:50.601Z,99.99
2017-07-12T08:00:50.678Z,99.99
2017-07-12T08:01:50.679Z,99.99
2017-07-12T08:02:50.684Z,99.99
2017-07-12T08:03:50.686Z,99.99
2017-07-12T08:04:50.593Z,99.99
2017-07-12T08:05:50.662Z,99.99
2017-07-12T08:06:50.691Z,99.99
2017-07-12T08:07:50.687Z,99.99
2017-07-12T08:08:50.662Z,99.99
2017-07-12T08:09:50.690Z,99.99
2017-07-12T08:10:50.686Z,99.99
2017-07-12T08:11:50.697Z,99.99
2017-07-12T08:12:50.608Z,99.99
2017-07-12T08:13:50.686Z,99.99
2017-07-12T08:14:50.676Z,99.99
2017-07-12T08:15:50.645Z,99.99
2017-07-12T08:16:50.682Z,99.99
2017-07-12T08:17:50.689Z,99.99
2017-07-12T08:18:50.663Z,99.99
2017-07-12T08:19:50.657Z,99.99
2017-07-12T08:20:50.656Z,99.99
2017-07-12T08:21:50.657Z,99.99
2017-07-12T08:22:50.658Z,99.99
2017-07-12T08:23:50.660Z,99.99
2017-07-12T08:24:50.658Z,99.99
2017-07-12T08:25:50.659Z,99.99
2017-07-12T08:26:50.660Z,99.99
2017-07-12T08:27:50.660Z,99.99
2017-07-12T08:28:50.663Z,99.99
2017-07-12T08:29:50.686Z,99.99
2017-07-12T08:30:50.683Z,99.99
2017-07-12T08:31:50.678Z,99.99
2017-07-12T08:32:50.677Z,99.99
2017-07-12T08:33:50.684Z,99.99
2017-07-12T08:34:50.681Z,99.99
2017-07-12T08:35:50.684Z,99.99
2017-07-12T08:36:50.682Z,99.99
2017-07-12T08:37:50.681Z,99.99
2017-07-12T08:38:50.685Z,99.99
2017-07-12T08:39:50.681Z,99.99
2017-07-12T08:40:50.685Z,99.99
2017-07-12T08:41:50.683Z,99.99
2017-07-12T08:42:50.683Z,99.99
2017-07-12T08:43:50.685Z,99.99
2017-07-12T08:44:50.682Z,99.99
2017-07-12T08:45:50.684Z,99.99
2017-07-12T08:46:50.685Z,99.99
2017-07-12T08:47:50.684Z,99.99
2017-07-12T08:48:50.686Z,99.99
2017-07-12T08:49:50.687Z,99.83
2017-07-12T08:50:50.665Z,99.67
2017-07-12T08:51:50.689Z,99.96
2017-07-12T08:52:50.715Z,98.50
2017-07-12T08:53:50.616Z,99.32
2017-07-12T08:54:50.691Z,97.83
2017-07-12T08:55:50.625Z,98.40
2017-07-12T08:56:50.630Z,98.15
2017-07-12T08:57:50.687Z,97.85
2017-07-12T08:58:50.686Z,98.02
2017-07-12T08:59:50.719Z,94.42
2017-07-12T09:00:50.717Z,95.31
2017-07-12T09:01:50.713Z,94.80
2017-07-12T09:02:50.707Z,93.56
2017-07-12T09:03:50.635Z,94.04
2017-07-12T09:04:50.710Z,93.75
2017-07-12T09:05:50.716Z,94.18
2017-07-12T09:06:50.719Z,94.56
2017-07-12T09:07:50.712Z,95.07
2017-07-12T09:08:50.659Z,94.64
2017-07-12T09:09:50.719Z,94.42
2017-07-12T09:10:50.722Z,94.99
2017-07-12T09:11:50.825Z,94.18
2017-07-12T09:12:50.715Z,94.02
2017-07-12T09:13:50.643Z,94.34
2017-07-12T09:14:50.697Z,94.31
2017-07-12T09:15:50.646Z,94.31
2017-07-12T09:16:50.632Z,93.37
2017-07-12T09:17:50.720Z,94.26
2017-07-12T09:18:50.725Z,95.37
2017-07-12T09:19:50.747Z,96.74
2017-07-12T09:20:50.624Z,94.64
2017-07-12T09:21:50.707Z,93.51
2017-07-12T09:22:50.707Z,94.37
2017-07-12T09:23:50.706Z,93.85
2017-07-12T09:33:50.713Z,90.88
2017-07-12T09:34:50.712Z,91.92
2017-07-12T09:35:50.714Z,93.10
2017-07-12T09:36:50.711Z,92.68
2017-07-12T09:37:50.715Z,91.52
2017-07-12T09:38:50.729Z,90.90
2017-07-12T09:39:50.805Z,91.33
2017-07-12T09:40:50.733Z,90.74
2017-07-12T09:41:50.649Z,92.16
2017-07-12T09:42:50.735Z,91.11
2017-07-12T09:43:50.694Z,90.88
2017-07-12T09:44:50.760Z,92.14
2017-07-12T09:45:50.669Z,93.24
2017-07-12T09:46:50.741Z,91.92
2017-07-12T09:47:50.739Z,92.08
2017-07-12T09:48:50.730Z,92.40
2017-07-12T09:49:50.739Z,92.54
2017-07-12T09:50:50.648Z,93.13
2017-07-12T09:51:50.746Z,92.86
2017-07-12T09:52:50.689Z,92.43
2017-07-12T09:53:50.738Z,91.97
2017-07-12T09:54:50.747Z,91.73
2017-07-12T09:55:50.739Z,91.03
2017-07-12T09:56:50.662Z,91.92
2017-07-12T09:57:50.656Z,90.31
2017-07-12T09:58:50.654Z,92.46
2017-07-12T09:59:50.664Z,92.22
2017-07-12T10:00:50.659Z,91.52
2017-07-12T10:01:50.718Z,92.05
2017-07-12T10:02:50.687Z,91.65
2017-07-12T10:03:50.751Z,91.86
2017-07-12T10:04:50.746Z,90.96
2017-07-12T10:05:50.744Z,91.25
2017-07-12T10:06:50.743Z,91.25
2017-07-12T10:07:50.715Z,92.01
2017-07-12T10:08:50.750Z,91.41
2017-07-12T10:09:50.761Z,92.46
2017-07-12T10:10:50.750Z,93.37
2017-07-12T10:11:50.753Z,92.38
2017-07-12T10:12:50.751Z,91.65
2017-07-12T10:13:50.753Z,92.76
2017-07-12T10:14:50.720Z,92.91
2017-07-12T10:15:50.747Z,94.02
2017-07-12T10:16:50.693Z,92.46
2017-07-12T10:17:50.747Z,93.51
2017-07-12T10:18:50.742Z,93.10
2017-07-12T10:19:50.671Z,93.48
2017-07-12T10:20:50.758Z,94.67
2017-07-12T10:21:50.761Z,92.73
2017-07-12T10:22:50.737Z,92.97
2017-07-12T10:23:50.738Z,94.07
2017-07-12T10:24:50.740Z,94.34
2017-07-12T10:25:50.739Z,95.31
2017-07-12T10:26:50.743Z,94.61
2017-07-12T10:27:50.740Z,95.34
2017-07-12T10:28:50.743Z,96.47
2017-07-12T10:29:50.719Z,97.15
2017-07-12T10:30:50.826Z,96.64
2017-07-12T10:31:50.749Z,97.42
2017-07-12T10:32:50.748Z,97.88
2017-07-12T10:33:50.746Z,96.28
2017-07-12T10:34:50.748Z,97.55
2017-07-12T10:35:50.749Z,96.31
2017-07-12T10:36:50.743Z,97.15
2017-07-12T10:37:50.749Z,95.88
2017-07-12T10:38:50.746Z,95.20
2017-07-12T10:39:50.745Z,96.80
2017-07-12T10:40:50.685Z,95.77
2017-07-12T10:41:50.778Z,96.58
2017-07-12T10:42:50.693Z,96.58
2017-07-12T10:43:50.772Z,96.02
2017-07-12T10:44:50.747Z,95.20
2017-07-12T10:45:50.877Z,94.83
2017-07-12T10:46:50.769Z,94.10
2017-07-12T10:47:50.693Z,94.61
2017-07-12T10:48:50.782Z,94.50
2017-07-12T10:49:50.774Z,95.23
2017-07-12T10:50:50.746Z,94.64
2017-07-12T10:51:50.743Z,94.77
2017-07-12T10:52:50.747Z,93.99
2017-07-12T10:53:50.744Z,95.37
2017-07-12T10:54:50.744Z,94.91
2017-07-12T10:55:50.749Z,93.96
2017-07-12T10:56:50.749Z,94.64
2017-07-12T10:57:50.760Z,94.96
2017-07-12T10:58:50.754Z,94.42
2017-07-12T10:59:50.850Z,95.20
2017-07-12T11:00:50.760Z,95.88
2017-07-12T11:01:50.756Z,96.34
2017-07-12T11:02:50.762Z,95.83
2017-07-12T11:03:50.762Z,95.18
2017-07-12T11:04:50.761Z,95.58
2017-07-12T11:05:50.765Z,95.12
2017-07-12T11:06:50.766Z,94.34
2017-07-12T11:07:50.762Z,96.07
2017-07-12T11:08:50.763Z,95.64
2017-07-12T11:09:50.767Z,96.42
2017-07-12T11:10:50.763Z,95.75
2017-07-12T11:11:50.765Z,96.99
2017-07-12T11:12:50.763Z,96.34
2017-07-12T11:13:50.765Z,96.55
2017-07-12T11:14:50.765Z,96.77
2017-07-12T11:15:50.733Z,96.88
2017-07-12T11:16:50.694Z,97.69
2017-07-12T11:17:50.685Z,97.93
2017-07-12T11:18:50.730Z,98.40
2017-07-12T11:19:50.736Z,97.88
2017-07-12T11:20:50.731Z,98.40
2017-07-12T11:21:50.690Z,98.37
2017-07-12T11:22:50.690Z,98.21
2017-07-12T11:23:50.689Z,98.80
2017-07-12T11:24:50.696Z,99.18
2017-07-12T11:25:50.799Z,98.96
2017-07-12T11:26:50.711Z,99.45
2017-07-12T11:27:50.843Z,99.32
2017-07-12T11:28:50.706Z,99.72
2017-07-12T11:29:50.715Z,99.89
2017-07-12T11:30:50.710Z,99.83
2017-07-12T11:31:50.797Z,99.99
2017-07-12T11:32:50.718Z,99.78
2017-07-12T11:33:50.793Z,99.99
2017-07-12T11:34:50.800Z,99.99
2017-07-12T11:35:50.784Z,99.99
2017-07-12T11:36:50.783Z,99.99
2017-07-12T11:37:50.778Z,99.99
2017-07-12T11:38:50.777Z,99.99
2017-07-12T11:39:50.778Z,99.99
2017-07-12T11:40:50.790Z,99.99
2017-07-12T11:41:50.788Z,99.99
2017-07-12T11:42:50.788Z,99.99
2017-07-12T11:43:50.791Z,99.99
2017-07-12T11:44:50.787Z,99.99
2017-07-12T11:45:50.785Z,99.99
2017-07-12T11:46:50.784Z,99.99
2017-07-12T11:47:50.786Z,99.99
2017-07-12T11:48:50.785Z,99.99
2017-07-12T11:49:50.796Z,99.99
2017-07-12T11:50:50.789Z,99.99
2017-07-12T11:51:50.788Z,99.99
2017-07-12T11:52:50.788Z,99.99
2017-07-12T11:53:50.790Z,99.75
2017-07-12T11:54:50.788Z,99.99
2017-07-12T11:55:50.799Z,99.99
2017-07-12T11:56:50.793Z,99.99
2017-07-12T11:57:50.821Z,99.99
2017-07-12T11:58:50.793Z,99.99
2017-07-12T11:59:50.792Z,99.99
2017-07-12T12:00:50.794Z,99.99
2017-07-12T12:01:50.792Z,99.10
2017-07-12T12:02:50.793Z,99.34
2017-07-12T12:03:50.792Z,98.55
2017-07-12T12:04:50.796Z,98.50
2017-07-12T12:05:50.795Z,99.45
2017-07-12T12:06:50.796Z,98.50
2017-07-12T12:07:50.795Z,99.18
2017-07-12T12:08:50.796Z,99.59
2017-07-12T12:09:50.797Z,99.04
2017-07-12T12:10:50.800Z,98.75
2017-07-12T12:11:50.799Z,98.91
2017-07-12T12:12:50.801Z,98.99
2017-07-12T12:13:50.798Z,99.75
2017-07-12T12:14:50.801Z,99.99
2017-07-12T12:15:50.799Z,98.83
2017-07-12T12:16:50.801Z,99.48
2017-07-12T12:17:50.802Z,98.72
2017-07-12T12:18:50.804Z,98.18
2017-07-12T12:19:50.804Z,98.45
2017-07-12T12:20:50.804Z,98.40
2017-07-12T12:21:50.804Z,98.12
2017-07-12T12:22:50.806Z,98.80
2017-07-12T12:23:50.807Z,99.32
2017-07-12T12:24:50.805Z,98.53
2017-07-12T12:25:50.808Z,97.69
2017-07-12T12:26:50.810Z,97.77
2017-07-12T12:27:50.807Z,97.07
2017-07-12T12:28:50.833Z,97.61
2017-07-12T12:29:50.812Z,95.04
2017-07-12T12:30:50.812Z,96.55
2017-07-12T12:31:50.811Z,96.45
2017-07-12T12:32:50.811Z,96.34
2017-07-12T12:33:50.811Z,96.23
2017-07-12T12:34:50.813Z,96.74
2017-07-12T12:35:50.814Z,97.47
2017-07-12T12:36:50.812Z,97.55
2017-07-12T12:37:50.840Z,97.66
2017-07-12T12:38:50.813Z,96.80
2017-07-12T12:39:50.815Z,96.77
2017-07-12T12:40:50.814Z,95.12
2017-07-12T12:41:50.825Z,96.23
2017-07-12T12:42:50.818Z,95.45
2017-07-12T12:43:50.819Z,95.39
2017-07-12T12:44:50.816Z,97.31
2017-07-12T12:45:50.824Z,98.02
2017-07-12T12:46:50.820Z,96.42
2017-07-12T12:47:50.819Z,96.66
2017-07-12T12:48:50.817Z,96.80
2017-07-12T12:49:50.821Z,96.66
2017-07-12T12:50:50.819Z,95.83
2017-07-12T12:51:50.823Z,97.21
2017-07-12T12:52:50.823Z,95.72
2017-07-12T12:53:50.824Z,95.12
2017-07-12T12:54:50.827Z,96.93
2017-07-12T12:55:50.826Z,96.91
2017-07-12T12:56:50.825Z,97.83
2017-07-12T12:57:50.826Z,97.96
2017-07-12T12:58:50.827Z,96.83
2017-07-12T12:59:50.827Z,97.26
2017-07-12T13:00:50.830Z,98.40
2017-07-12T13:01:50.830Z,97.72
2017-07-12T13:02:50.831Z,96.15
2017-07-12T13:03:50.829Z,97.21
2017-07-12T13:04:50.832Z,97.85
2017-07-12T13:05:50.832Z,98.31
2017-07-12T13:06:50.833Z,97.21